createdAt,value
2017-11-19T00:00:14.513Z,100469.28
2017-11-19T00:02:43.250Z,100471.02
2017-11-19T00:05:11.982Z,100478.06
2017-11-19T00:07:40.749Z,100470.56
2017-11-19T00:10:09.334Z,100463.51
2017-11-19T00:12:38.131Z,100456.83
2017-11-19T00:15:06.760Z,100455.91
2017-11-19T00:17:35.256Z,100454.52
2017-11-19T00:20:04.050Z,100459.73
2017-11-19T00:22:32.716Z,100451.34
2017-11-19T00:25:01.846Z,100455.50
2017-11-19T00:27:30.671Z,100458.63
2017-11-19T00:29:59.437Z,100451.66
2017-11-19T00:32:28.086Z,100446.03
2017-11-19T00:34:56.898Z,100438.28
2017-11-19T00:37:25.516Z,100432.66
2017-11-19T00:39:54.196Z,100440.38
2017-11-19T00:42:22.991Z,100427.97
2017-11-19T00:44:51.692Z,100428.55
2017-11-19T00:47:20.406Z,100424.72
2017-11-19T00:49:49.043Z,100430.22
2017-11-19T00:52:17.793Z,100425.70
2017-11-19T00:54:46.446Z,100426.13
2017-11-19T00:57:15.326Z,100431.91
2017-11-19T00:59:44.002Z,100435.73
2017-11-19T01:02:12.902Z,100436.14
2017-11-19T01:04:41.752Z,100429.38
2017-11-19T01:07:10.309Z,100421.85
2017-11-19T01:09:39.119Z,100424.63
2017-11-19T01:12:07.729Z,100418.03
2017-11-19T01:14:36.502Z,100418.00
2017-11-19T01:17:05.410Z,100415.97
2017-11-19T01:19:34.074Z,100410.94
2017-11-19T01:22:03.378Z,100401.36
2017-11-19T01:24:32.093Z,100395.73
2017-11-19T01:27:00.840Z,100391.34
2017-11-19T01:29:29.457Z,100390.19
2017-11-19T01:31:58.153Z,100392.16
2017-11-19T01:34:27.002Z,100383.25
2017-11-19T01:36:55.533Z,100383.54
2017-11-19T01:39:24.385Z,100369.52
2017-11-19T01:41:53.142Z,100377.50
2017-11-19T01:44:21.957Z,100370.16
2017-11-19T01:46:50.668Z,100356.13
2017-11-19T01:49:19.532Z,100356.13
2017-11-19T01:51:48.038Z,100345.83
2017-11-19T01:54:16.909Z,100351.96
2017-11-19T01:56:45.645Z,100339.20
2017-11-19T01:59:14.312Z,100341.52
2017-11-19T02:01:43.268Z,100331.56
2017-11-19T02:04:11.914Z,100337.49
2017-11-19T02:06:40.623Z,100338.02
2017-11-19T02:09:09.524Z,100325.28
2017-11-19T02:11:38.345Z,100332.03
2017-11-19T02:14:07.186Z,100334.02
2017-11-19T02:16:35.915Z,100329.52
2017-11-19T02:19:04.785Z,100330.98
2017-11-19T02:21:33.341Z,100342.50
2017-11-19T02:24:02.880Z,100339.14
2017-11-19T02:26:31.517Z,100343.95
2017-11-19T02:29:00.152Z,100338.80
2017-11-19T02:31:29.065Z,100342.39
2017-11-19T02:33:57.706Z,100337.76
2017-11-19T02:36:26.215Z,100332.95
2017-11-19T02:38:55.309Z,100328.77
2017-11-19T02:41:24.093Z,100330.50
2017-11-19T02:43:52.690Z,100331.25
2017-11-19T02:46:21.396Z,100329.02
2017-11-19T02:48:50.047Z,100319.47
2017-11-19T02:51:18.801Z,100322.66
2017-11-19T02:53:47.408Z,100318.89
2017-11-19T02:56:15.971Z,100313.61
2017-11-19T02:58:44.615Z,100307.87
2017-11-19T03:01:13.482Z,100299.44
2017-11-19T03:03:42.360Z,100298.25
2017-11-19T03:06:11.066Z,100300.83
2017-11-19T03:08:39.730Z,100301.17
2017-11-19T03:11:08.364Z,100292.78
2017-11-19T03:13:36.925Z,100301.69
2017-11-19T03:16:05.444Z,100289.98
2017-11-19T03:18:33.978Z,100280.03
2017-11-19T03:21:02.582Z,100278.52
2017-11-19T03:23:31.489Z,100281.94
2017-11-19T03:26:00.169Z,100275.69
2017-11-19T03:28:28.989Z,100282.66
2017-11-19T03:30:57.576Z,100282.55
2017-11-19T03:33:26.449Z,100282.22
2017-11-19T03:35:55.136Z,100275.43
2017-11-19T03:38:23.626Z,100270.86
2017-11-19T03:40:52.456Z,100279.94
2017-11-19T03:43:21.120Z,100276.12
2017-11-19T03:45:49.860Z,100268.92
2017-11-19T03:48:18.497Z,100270.08
2017-11-19T03:50:47.404Z,100269.91
2017-11-19T03:53:16.048Z,100274.63
2017-11-19T03:55:44.564Z,100265.97
2017-11-19T03:58:13.298Z,100263.34
2017-11-19T04:00:42.141Z,100258.39
2017-11-19T04:03:10.853Z,100257.64
2017-11-19T04:05:39.545Z,100257.81
2017-11-19T04:08:08.384Z,100256.42
2017-11-19T04:10:37.090Z,100260.50
2017-11-19T04:13:05.657Z,100251.69
2017-11-19T04:15:34.377Z,100249.17
2017-11-19T04:18:03.156Z,100248.94
2017-11-19T04:20:32.043Z,100243.61
2017-11-19T04:23:00.698Z,100247.34
2017-11-19T04:25:29.338Z,100248.04
2017-11-19T04:27:57.943Z,100248.85
2017-11-19T04:30:26.809Z,100252.78
2017-11-19T04:32:55.621Z,100242.31
2017-11-19T04:35:24.353Z,100244.59
2017-11-19T04:37:53.044Z,100230.60
2017-11-19T04:40:21.770Z,100230.45
2017-11-19T04:42:50.363Z,100222.30
2017-11-19T04:45:19.297Z,100229.39
2017-11-19T04:47:47.824Z,100220.59
2017-11-19T04:50:16.529Z,100214.61
2017-11-19T04:52:45.150Z,100216.17
2017-11-19T04:55:13.661Z,100212.44
2017-11-19T04:57:42.306Z,100208.91
2017-11-19T05:03:11.635Z,100205.41
2017-11-19T05:05:40.040Z,100209.33
2017-11-19T05:08:08.362Z,100205.59
2017-11-19T05:10:36.692Z,100205.47
2017-11-19T05:13:04.984Z,100205.88
2017-11-19T05:15:33.355Z,100198.36
2017-11-19T05:18:01.659Z,100203.13
2017-11-19T05:20:30.490Z,100188.95
2017-11-19T05:22:58.768Z,100190.44
2017-11-19T05:25:27.121Z,100178.52
2017-11-19T05:27:55.402Z,100173.97
2017-11-19T05:30:23.709Z,100159.49
2017-11-19T05:32:52.001Z,100161.05
2017-11-19T05:35:20.453Z,100163.50
2017-11-19T05:37:48.824Z,100155.66
2017-11-19T05:40:17.173Z,100165.76
2017-11-19T05:42:45.517Z,100158.53
2017-11-19T05:45:13.857Z,100164.18
2017-11-19T05:47:42.153Z,100171.20
2017-11-19T05:50:10.517Z,100164.64
2017-11-19T05:52:38.918Z,100163.21
2017-11-19T05:55:07.230Z,100171.74
2017-11-19T05:57:35.578Z,100170.77
2017-11-19T06:00:03.956Z,100173.55
2017-11-19T06:02:32.414Z,100175.52
2017-11-19T06:05:00.708Z,100168.00
2017-11-19T06:07:29.048Z,100166.20
2017-11-19T06:09:57.345Z,100165.22
2017-11-19T06:12:25.736Z,100159.20
2017-11-19T06:14:54.024Z,100167.71
2017-11-19T06:17:22.345Z,100164.36
2017-11-19T06:19:50.626Z,100152.62
2017-11-19T06:22:19.061Z,100171.47
2017-11-19T06:24:47.332Z,100155.85
2017-11-19T06:27:15.729Z,100155.66
2017-11-19T06:29:44.004Z,100156.62
2017-11-19T06:32:12.294Z,100161.02
2017-11-19T06:34:40.637Z,100154.48
2017-11-19T06:37:09.128Z,100160.45
2017-11-19T06:39:37.376Z,100157.56
2017-11-19T06:42:05.673Z,100157.01
2017-11-19T06:44:34.028Z,100153.47
2017-11-19T06:47:02.463Z,100149.53
2017-11-19T06:49:30.865Z,100150.17
2017-11-19T06:51:59.166Z,100148.80
2017-11-19T06:54:27.452Z,100150.38
2017-11-19T06:56:55.752Z,100159.39
2017-11-19T06:59:24.078Z,100149.49
2017-11-19T07:01:52.397Z,100148.11
2017-11-19T07:04:20.742Z,100152.87
2017-11-19T07:06:49.044Z,100153.13
2017-11-19T07:09:17.322Z,100154.12
2017-11-19T07:11:45.733Z,100162.27
2017-11-19T07:14:14.180Z,100161.87
2017-11-19T07:16:42.475Z,100159.09
2017-11-19T07:19:10.769Z,100154.40
2017-11-19T07:21:39.065Z,100145.66
2017-11-19T07:24:07.321Z,100149.07
2017-11-19T07:26:35.772Z,100146.88
2017-11-19T07:29:04.204Z,100151.85
2017-11-19T07:31:32.595Z,100141.17
2017-11-19T07:34:00.884Z,100144.17
2017-11-19T07:36:29.204Z,100145.79
2017-11-19T07:38:57.519Z,100144.80
2017-11-19T07:41:25.916Z,100141.80
2017-11-19T07:43:54.248Z,100135.66
2017-11-19T07:46:22.613Z,100146.22
2017-11-19T07:48:51.028Z,100133.72
2017-11-19T07:51:19.360Z,100142.27
2017-11-19T07:53:47.677Z,100130.01
2017-11-19T07:56:16.012Z,100127.17
2017-11-19T07:58:44.357Z,100114.50
2017-11-19T08:01:12.666Z,100120.69
2017-11-19T08:03:41.118Z,100128.84
2017-11-19T08:06:09.424Z,100122.25
2017-11-19T08:08:37.904Z,100124.68
2017-11-19T08:11:06.424Z,100120.92
2017-11-19T08:13:34.724Z,100126.49
2017-11-19T08:16:03.036Z,100133.31
2017-11-19T08:18:31.311Z,100131.70
2017-11-19T08:20:59.631Z,100136.67
2017-11-19T08:23:27.937Z,100123.72
2017-11-19T08:25:56.340Z,100126.09
2017-11-19T08:28:24.781Z,100129.88
2017-11-19T08:30:53.089Z,100122.13
2017-11-19T08:33:21.360Z,100129.66
2017-11-19T08:35:49.653Z,100132.05
2017-11-19T08:38:17.917Z,100134.83
2017-11-19T08:40:46.220Z,100126.31
2017-11-19T08:43:14.521Z,100123.52
2017-11-19T08:45:42.888Z,100119.75
2017-11-19T08:48:11.989Z,100109.98
2017-11-19T08:50:40.321Z,100106.22
2017-11-19T08:53:08.617Z,100116.75
2017-11-19T08:55:36.997Z,100116.42
2017-11-19T08:58:05.298Z,100117.88
2017-11-19T09:00:34.254Z,100116.47
2017-11-19T09:03:02.708Z,100110.28
2017-11-19T09:05:31.000Z,100107.55
2017-11-19T09:07:59.272Z,100103.41
2017-11-19T09:10:27.825Z,100104.77
2017-11-19T09:12:56.465Z,100098.88
2017-11-19T09:15:24.941Z,100112.32
2017-11-19T09:17:53.260Z,100104.55
2017-11-19T09:20:21.619Z,100117.88
2017-11-19T09:22:50.049Z,100113.11
2017-11-19T09:25:18.401Z,100116.59
2017-11-19T09:27:46.968Z,100113.80
2017-11-19T09:30:16.293Z,100123.29
2017-11-19T09:32:44.581Z,100133.14
2017-11-19T09:35:13.377Z,100126.58
2017-11-19T09:37:42.204Z,100117.44
2017-11-19T09:40:11.845Z,100121.02
2017-11-19T09:42:43.767Z,100121.55
2017-11-19T09:45:16.196Z,100114.78
2017-11-19T09:47:45.591Z,100117.71
2017-11-19T09:50:16.437Z,100116.75
2017-11-19T09:52:44.868Z,100120.86
2017-11-19T09:55:13.705Z,100110.00
2017-11-19T09:57:42.137Z,100100.38
2017-11-19T10:00:10.622Z,100110.65
2017-11-19T10:02:39.026Z,100120.78
2017-11-19T10:05:07.395Z,100117.59
2017-11-19T10:07:35.720Z,100116.89
2017-11-19T10:10:04.537Z,100116.48
2017-11-19T10:12:32.936Z,100115.83
2017-11-19T10:15:01.886Z,100115.83
2017-11-19T10:17:30.497Z,100110.23
2017-11-19T10:19:58.758Z,100105.23
2017-11-19T10:22:27.183Z,100101.95
2017-11-19T10:24:55.483Z,100101.44
2017-11-19T10:27:23.813Z,100105.66
2017-11-19T10:29:52.256Z,100105.19
2017-11-19T10:32:20.592Z,100109.94
2017-11-19T10:34:48.865Z,100093.61
2017-11-19T10:37:17.394Z,100095.63
2017-11-19T10:39:45.853Z,100089.19
2017-11-19T10:42:14.349Z,100088.56
2017-11-19T10:44:42.822Z,100090.45
2017-11-19T10:47:11.317Z,100086.89
2017-11-19T10:49:39.625Z,100094.30
2017-11-19T10:52:07.973Z,100086.38
2017-11-19T10:54:36.295Z,100086.84
2017-11-19T10:57:04.652Z,100084.73
2017-11-19T10:59:32.925Z,100087.34
2017-11-19T11:02:01.243Z,100087.63
2017-11-19T11:04:30.161Z,100080.80
2017-11-19T11:06:58.757Z,100073.20
2017-11-19T11:09:27.096Z,100069.27
2017-11-19T11:11:55.432Z,100071.02
2017-11-19T11:14:24.121Z,100082.72
2017-11-19T11:16:52.428Z,100084.65
2017-11-19T11:19:20.721Z,100103.22
2017-11-19T11:21:49.056Z,100110.00
2017-11-19T11:24:17.467Z,100095.13
2017-11-19T11:26:45.788Z,100075.84
2017-11-19T11:29:14.216Z,100081.04
2017-11-19T11:31:42.525Z,100079.19
2017-11-19T11:34:10.997Z,100077.91
2017-11-19T11:36:39.316Z,100073.80
2017-11-19T11:39:07.622Z,100067.48
2017-11-19T11:41:35.928Z,100076.11
2017-11-19T11:44:04.314Z,100063.20
2017-11-19T11:46:33.420Z,100076.28
2017-11-19T11:49:01.881Z,100051.55
2017-11-19T11:51:30.376Z,100059.89
2017-11-19T11:53:58.849Z,100053.98
2017-11-19T11:56:27.144Z,100052.77
2017-11-19T11:58:55.665Z,100051.29
2017-11-19T12:01:23.973Z,100058.36
2017-11-19T12:03:52.552Z,100053.38
2017-11-19T12:06:20.893Z,100067.68
2017-11-19T12:08:49.197Z,100064.09
2017-11-19T12:11:17.528Z,100059.34
2017-11-19T12:13:45.882Z,100061.53
2017-11-19T12:16:14.238Z,100046.13
2017-11-19T12:18:42.556Z,100047.23
2017-11-19T12:21:10.872Z,100044.64
2017-11-19T12:23:39.198Z,100067.68
2017-11-19T12:26:07.548Z,100057.31
2017-11-19T12:28:35.840Z,100058.11
2017-11-19T12:31:04.165Z,100046.87
2017-11-19T12:33:32.470Z,100051.99
2017-11-19T12:36:00.780Z,100057.31
2017-11-19T12:38:29.041Z,100052.87
2017-11-19T12:40:57.338Z,100067.73
2017-11-19T12:43:25.675Z,100076.83
2017-11-19T12:45:53.981Z,100067.51
2017-11-19T12:48:22.254Z,100066.88
2017-11-19T12:50:50.576Z,100066.07
2017-11-19T12:53:18.857Z,100066.07
2017-11-19T12:55:47.179Z,100066.48
2017-11-19T12:58:15.641Z,100068.85
2017-11-19T13:00:44.177Z,100065.89
2017-11-19T13:03:13.504Z,100062.53
2017-11-19T13:05:41.817Z,100069.08
2017-11-19T13:08:10.118Z,100073.06
2017-11-19T13:10:38.439Z,100081.58
2017-11-19T13:13:06.737Z,100078.05
2017-11-19T13:15:35.039Z,100070.24
2017-11-19T13:18:03.373Z,100072.08
2017-11-19T13:20:31.801Z,100067.55
2017-11-19T13:23:00.089Z,100067.97
2017-11-19T13:25:28.405Z,100063.34
2017-11-19T13:27:56.721Z,100067.47
2017-11-19T13:30:25.209Z,100062.31
2017-11-19T13:32:53.490Z,100067.83
2017-11-19T13:35:21.810Z,100067.13
2017-11-19T13:37:50.118Z,100070.48
2017-11-19T13:40:18.430Z,100062.09
2017-11-19T13:42:46.870Z,100076.38
2017-11-19T13:45:15.181Z,100083.61
2017-11-19T13:47:43.470Z,100088.27
2017-11-19T13:50:11.816Z,100084.08
2017-11-19T13:52:40.120Z,100087.16
2017-11-19T13:55:08.416Z,100094.24
2017-11-19T13:57:36.857Z,100090.81
2017-11-19T14:00:05.187Z,100085.21
2017-11-19T14:02:33.472Z,100092.56
2017-11-19T14:05:01.782Z,100094.20
2017-11-19T14:07:30.113Z,100090.42
2017-11-19T14:10:04.706Z,100088.53
2017-11-19T14:12:33.069Z,100086.16
2017-11-19T14:15:01.321Z,100094.27
2017-11-19T14:17:29.725Z,100094.47
2017-11-19T14:19:58.000Z,100100.62
2017-11-19T14:22:26.514Z,100109.54
2017-11-19T14:24:54.776Z,100110.70
2017-11-19T14:27:23.142Z,100108.86
2017-11-19T14:29:51.457Z,100097.16
2017-11-19T14:32:19.774Z,100091.78
2017-11-19T14:34:48.057Z,100092.59
2017-11-19T14:37:16.426Z,100097.55
2017-11-19T14:39:44.798Z,100090.80
2017-11-19T14:42:13.198Z,100097.73
2017-11-19T14:44:41.480Z,100094.38
2017-11-19T14:47:10.439Z,100102.72
2017-11-19T14:49:38.737Z,100100.33
2017-11-19T14:52:07.116Z,100098.73
2017-11-19T14:54:35.395Z,100103.11
2017-11-19T14:57:03.704Z,100095.93
2017-11-19T14:59:32.049Z,100102.70
2017-11-19T15:02:00.340Z,100103.69
2017-11-19T15:04:28.785Z,100098.89
2017-11-19T15:06:57.108Z,100096.87
2017-11-19T15:09:25.476Z,100099.47
2017-11-19T15:11:53.809Z,100117.53
2017-11-19T15:14:22.097Z,100120.49
2017-11-19T15:16:50.401Z,100126.28
2017-11-19T15:19:18.681Z,100137.80
2017-11-19T15:21:47.075Z,100136.59
2017-11-19T15:24:15.358Z,100134.80
2017-11-19T15:26:43.684Z,100139.55
2017-11-19T15:29:12.025Z,100131.78
2017-11-19T15:31:40.321Z,100136.94
2017-11-19T15:34:08.647Z,100143.71
2017-11-19T15:36:36.960Z,100144.70
2017-11-19T15:39:05.825Z,100143.48
2017-11-19T15:41:34.117Z,100143.89
2017-11-19T15:44:02.397Z,100139.31
2017-11-19T15:46:30.709Z,100143.08
2017-11-19T15:48:59.033Z,100141.52
2017-11-19T15:51:27.348Z,100135.36
2017-11-19T15:53:55.757Z,100139.53
2017-11-19T15:56:24.066Z,100144.47
2017-11-19T15:58:52.580Z,100132.77
2017-11-19T16:01:20.900Z,100121.25
2017-11-19T16:03:49.246Z,100117.08
2017-11-19T16:06:17.553Z,100125.64
2017-11-19T16:08:45.828Z,100131.20
2017-11-19T16:11:14.134Z,100134.39
2017-11-19T16:13:42.449Z,100127.03
2017-11-19T16:16:10.746Z,100131.78
2017-11-19T16:18:39.214Z,100133.97
2017-11-19T16:21:07.533Z,100136.93
2017-11-19T16:23:40.885Z,100117.66
2017-11-19T16:26:09.605Z,100114.52
2017-11-19T16:28:38.340Z,100110.88
2017-11-19T16:31:06.763Z,100109.54
2017-11-19T16:33:35.110Z,100127.83
2017-11-19T16:36:03.567Z,100129.22
2017-11-19T16:38:31.909Z,100124.84
2017-11-19T16:41:00.405Z,100130.61
2017-11-19T16:43:28.855Z,100129.35
2017-11-19T16:45:59.899Z,100146.30
2017-11-19T16:48:29.284Z,100142.09
2017-11-19T16:50:59.274Z,100140.88
2017-11-19T16:53:30.524Z,100141.05
2017-11-19T16:55:59.354Z,100142.04
2017-11-19T16:58:27.965Z,100143.20
2017-11-19T17:00:56.585Z,100144.81
2017-11-19T17:03:24.951Z,100149.03
2017-11-19T17:05:53.240Z,100152.17
2017-11-19T17:08:21.576Z,100153.56
2017-11-19T17:10:49.957Z,100156.74
2017-11-19T17:13:18.396Z,100154.55
2017-11-19T17:15:47.117Z,100160.69
2017-11-19T17:18:15.577Z,100164.05
2017-11-19T17:20:44.497Z,100177.52
2017-11-19T17:23:12.942Z,100185.75
2017-11-19T17:25:41.808Z,100178.58
2017-11-19T17:28:10.313Z,100175.80
2017-11-19T17:30:38.642Z,100172.20
2017-11-19T17:33:07.052Z,100190.50
2017-11-19T17:35:39.867Z,100212.97
2017-11-19T17:38:09.204Z,100212.79
2017-11-19T17:40:37.509Z,100209.02
2017-11-19T17:43:05.837Z,100208.64
2017-11-19T17:45:34.169Z,100211.83
2017-11-19T17:48:02.540Z,100213.59
2017-11-19T17:50:30.886Z,100202.08
2017-11-19T17:52:59.177Z,100215.80
2017-11-19T17:55:27.489Z,100191.55
2017-11-19T17:57:55.785Z,100204.92
2017-11-19T18:00:24.132Z,100205.10
2017-11-19T18:02:52.518Z,100212.05
2017-11-19T18:05:20.864Z,100220.34
2017-11-19T18:07:51.127Z,100218.75
2017-11-19T18:10:19.980Z,100218.12
2017-11-19T18:12:48.501Z,100224.09
2017-11-19T18:15:16.886Z,100218.53
2017-11-19T18:17:45.366Z,100225.02
2017-11-19T18:20:13.725Z,100229.02
2017-11-19T18:22:42.073Z,100231.39
2017-11-19T18:25:10.483Z,100230.98
2017-11-19T18:27:38.872Z,100239.78
2017-11-19T18:30:07.203Z,100241.11
2017-11-19T18:32:36.534Z,100245.28
2017-11-19T18:35:09.154Z,100253.05
2017-11-19T18:37:42.813Z,100257.62
2017-11-19T18:40:14.935Z,100262.02
2017-11-19T18:42:44.328Z,100271.16
2017-11-19T18:45:12.644Z,100271.56
2017-11-19T18:47:41.044Z,100270.13
2017-11-19T18:50:09.340Z,100274.55
2017-11-19T18:52:37.779Z,100279.12
2017-11-19T18:55:06.101Z,100280.73
2017-11-19T18:57:34.380Z,100281.37
2017-11-19T19:00:02.804Z,100286.81
2017-11-19T19:02:31.113Z,100288.73
2017-11-19T19:04:59.372Z,100287.56
2017-11-19T19:07:27.755Z,100298.05
2017-11-19T19:09:56.080Z,100306.22
2017-11-19T19:12:24.743Z,100306.62
2017-11-19T19:14:53.061Z,100310.16
2017-11-19T19:17:21.348Z,100316.76
2017-11-19T19:19:49.726Z,100318.55
2017-11-19T19:22:18.169Z,100334.07
2017-11-19T19:24:46.489Z,100333.27
2017-11-19T19:27:17.885Z,100342.70
2017-11-19T19:29:46.449Z,100352.27
2017-11-19T19:32:14.744Z,100354.05
2017-11-19T19:34:43.005Z,100354.46
2017-11-19T19:37:11.320Z,100355.85
2017-11-19T19:39:39.585Z,100366.63
2017-11-19T19:42:07.885Z,100372.94
2017-11-19T19:44:36.300Z,100375.95
2017-11-19T19:47:04.687Z,100383.59
2017-11-19T19:49:33.004Z,100390.55
2017-11-19T19:52:01.364Z,100391.18
2017-11-19T19:54:29.829Z,100398.54
2017-11-19T19:56:58.138Z,100402.70
2017-11-19T19:59:26.440Z,100404.16
2017-11-19T20:01:54.756Z,100406.30
2017-11-19T20:04:23.068Z,100420.02
2017-11-19T20:06:51.377Z,100416.20
2017-11-19T20:09:19.667Z,100419.80
2017-11-19T20:11:47.977Z,100425.53
2017-11-19T20:14:16.444Z,100428.13
2017-11-19T20:16:44.743Z,100433.11
2017-11-19T20:19:13.207Z,100442.44
2017-11-19T20:21:41.516Z,100447.94
2017-11-19T20:24:10.048Z,100451.13
2017-11-19T20:26:38.460Z,100454.86
2017-11-19T20:29:07.042Z,100461.81
2017-11-19T20:31:35.421Z,100463.55
2017-11-19T20:34:03.992Z,100472.33
2017-11-19T20:36:32.326Z,100478.70
2017-11-19T20:39:00.617Z,100482.26
2017-11-19T20:41:29.010Z,100482.44
2017-11-19T20:43:57.420Z,100481.39
2017-11-19T20:46:25.865Z,100497.48
2017-11-19T20:48:54.187Z,100500.79
2017-11-19T20:51:22.477Z,100502.15
2017-11-19T20:53:50.813Z,100505.19
2017-11-19T20:56:19.127Z,100514.92
2017-11-19T20:58:47.416Z,100519.33
2017-11-19T21:01:15.757Z,100517.53
2017-11-19T21:03:44.080Z,100508.20
2017-11-19T21:06:12.377Z,100522.86
2017-11-19T21:08:41.040Z,100541.06
2017-11-19T21:11:09.356Z,100540.28
2017-11-19T21:13:38.017Z,100544.69
2017-11-19T21:16:06.358Z,100559.80
2017-11-19T21:18:34.996Z,100559.05
2017-11-19T21:21:04.013Z,100562.98
2017-11-19T21:23:32.355Z,100558.01
2017-11-19T21:26:00.669Z,100564.55
2017-11-19T21:28:29.000Z,100565.02
2017-11-19T21:30:57.329Z,100570.75
2017-11-19T21:33:25.764Z,100576.89
2017-11-19T21:35:54.190Z,100588.99
2017-11-19T21:38:22.652Z,100592.66
2017-11-19T21:40:50.947Z,100585.77
2017-11-19T21:43:19.304Z,100587.95
2017-11-19T21:45:47.649Z,100602.25
2017-11-19T21:48:15.985Z,100599.67
2017-11-19T21:50:45.596Z,100603.70
2017-11-19T21:53:14.308Z,100604.45
2017-11-19T21:55:45.291Z,100612.97
2017-11-19T21:58:13.642Z,100615.34
2017-11-19T22:00:41.973Z,100610.42
2017-11-19T22:03:10.240Z,100620.79
2017-11-19T22:05:38.536Z,100617.44
2017-11-19T22:08:07.031Z,100618.99
2017-11-19T22:10:35.702Z,100625.94
2017-11-19T22:13:04.333Z,100624.90
2017-11-19T22:15:32.684Z,100632.72
2017-11-19T22:18:00.981Z,100637.73
2017-11-19T22:20:29.293Z,100635.67
2017-11-19T22:22:57.602Z,100641.17
2017-11-19T22:25:25.936Z,100640.16
2017-11-19T22:27:54.247Z,100647.14
2017-11-19T22:30:22.625Z,100650.29
2017-11-19T22:32:50.936Z,100654.49
2017-11-19T22:35:19.293Z,100655.84
2017-11-19T22:37:47.737Z,100665.34
2017-11-19T22:40:16.040Z,100667.48
2017-11-19T22:42:44.320Z,100669.75
2017-11-19T22:45:12.604Z,100667.58
2017-11-19T22:47:40.952Z,100668.22
2017-11-19T22:50:09.263Z,100674.53
2017-11-19T22:52:37.564Z,100674.77
2017-11-19T22:55:05.997Z,100673.05
2017-11-19T22:57:34.341Z,100680.39
2017-11-19T23:00:02.653Z,100673.92
2017-11-19T23:02:31.185Z,100682.29
2017-11-19T23:04:59.504Z,100681.21
2017-11-19T23:07:27.828Z,100686.70
2017-11-19T23:09:57.594Z,100700.37
2017-11-19T23:12:26.411Z,100699.11
2017-11-19T23:14:54.748Z,100697.17
2017-11-19T23:17:23.083Z,100701.31
2017-11-19T23:19:53.589Z,100708.37
2017-11-19T23:22:21.917Z,100714.40
2017-11-19T23:24:50.188Z,100711.95
2017-11-19T23:27:18.541Z,100716.47
2017-11-19T23:29:46.871Z,100719.72
2017-11-19T23:32:15.353Z,100724.70
2017-11-19T23:34:43.792Z,100723.42
2017-11-19T23:37:12.220Z,100732.23
2017-11-19T23:39:40.944Z,100730.95
2017-11-19T23:42:09.514Z,100731.59
2017-11-19T23:44:38.022Z,100737.72
2017-11-19T23:47:06.436Z,100739.52
2017-11-19T23:49:34.871Z,100747.11
2017-11-19T23:52:04.189Z,100754.36
2017-11-19T23:54:32.964Z,100751.05
2017-11-19T23:57:01.283Z,100752.78
2017-11-19T23:59:29.571Z,100753.99
